Anchorage, Utah
Current Conditions -  °F | °C
As of 5:03 AM on Sunday 23 Nov 2014 (Local Time) from KHIF Reporting Station
Overcast Overcast  
Wind Chill: -4°   Ceiling: 3400
Heat Index:   Visibility: 10mi
Dew Point:   Wind: 8mph
Humidity: 100%   Direction: 350°N
Pressure: 30.05"   Gusts: NA
Location:  41.123°N, 112.063°W
Report Text: KHIF 231203Z AUTO 35007KT 10SM FEW023 OVC034 00/00 A3005 RMK AO2
Loading
Personal Weather Stations






























Interactive Weather Map New forecast layout! Learn more

10-Day Weather Forecast

Advertisements
Track Severe Weather on mobile